AFR7418 LPMA-LFBO
Flight info
| Callsign | AFR7418 |
|---|---|
| Flight time | N/A |
| Altitude | 36000 |
| Route | OTZIL DCT GIKAR DCT BAROK DCT ROKTE DCT PESAS N858 SIE T430 LPA DCT VEGEL DCT AKEPO DCT USAKU DCT BUROX |
| Aircraft | A320/M-SDE3FGHIRWY/LB1 |
Departure
| Time | 2026-05-04 14:10 |
|---|---|
| Airport | Cristiano Ronaldo International Airport (LPMA) |
Arrival
| Time | N/A |
|---|---|
| Airport | Toulouse-Blagnac Airport (LFBO) |
| Time | Latitude | Longitude | Altitude | Speed | Heading |
|---|---|---|---|---|---|
| 2026-05-04 13:38 | 32.69387 | -16.77632 | 177 ft | 0 kts | 138° |
| 2026-05-04 13:59 | 32.69389 | -16.77634 | 176 ft | 2 kts | 137° |
| 2026-05-04 14:00 | 32.69405 | -16.77655 | 176 ft | 4 kts | 118° |
| 2026-05-04 14:00 | 32.69405 | -16.77713 | 176 ft | 4 kts | 54° |
| 2026-05-04 14:00 | 32.69389 | -16.77736 | 176 ft | 2 kts | 46° |
| 2026-05-04 14:01 | 32.69387 | -16.77738 | 176 ft | 0 kts | 46° |
| 2026-05-04 14:03 | 32.69405 | -16.77716 | 176 ft | 8 kts | 46° |
| 2026-05-04 14:03 | 32.69453 | -16.77656 | 176 ft | 10 kts | 46° |
| 2026-05-04 14:04 | 32.69530 | -16.77560 | 176 ft | 7 kts | 47° |
| 2026-05-04 14:04 | 32.69558 | -16.77524 | 176 ft | 5 kts | 47° |
| 2026-05-04 14:04 | 32.69591 | -16.77484 | 176 ft | 10 kts | 45° |
| 2026-05-04 14:05 | 32.69703 | -16.77345 | 176 ft | 10 kts | 46° |
| 2026-05-04 14:05 | 32.69749 | -16.77288 | 176 ft | 9 kts | 45° |
| 2026-05-04 14:05 | 32.69802 | -16.77224 | 176 ft | 12 kts | 46° |
| 2026-05-04 14:06 | 32.69867 | -16.77178 | 176 ft | 10 kts | 4° |
| 2026-05-04 14:06 | 32.69944 | -16.77179 | 176 ft | 12 kts | 359° |
| 2026-05-04 14:06 | 32.70022 | -16.77169 | 176 ft | 11 kts | 25° |
| 2026-05-04 14:06 | 32.70084 | -16.77101 | 176 ft | 14 kts | 46° |
| 2026-05-04 14:07 | 32.70164 | -16.77006 | 176 ft | 19 kts | 45° |
| 2026-05-04 14:07 | 32.70260 | -16.76894 | 176 ft | 20 kts | 45° |
| 2026-05-04 14:07 | 32.70360 | -16.76778 | 176 ft | 20 kts | 45° |
| 2026-05-04 14:07 | 32.70463 | -16.76657 | 176 ft | 21 kts | 44° |
| 2026-05-04 14:08 | 32.70565 | -16.76538 | 176 ft | 12 kts | 44° |
| 2026-05-04 14:08 | 32.70628 | -16.76495 | 176 ft | 10 kts | 6° |
| 2026-05-04 14:08 | 32.70686 | -16.76473 | 176 ft | 8 kts | 45° |
| 2026-05-04 14:08 | 32.70665 | -16.76420 | 176 ft | 10 kts | 179° |
| 2026-05-04 14:09 | 32.70411 | -16.76717 | 176 ft | 75 kts | 224° |
| 2026-05-04 14:09 | 32.69898 | -16.77319 | 176 ft | 133 kts | 224° |
| 2026-05-04 14:10 | 32.68304 | -16.79080 | 1021 ft | 160 kts | 206° |
| 2026-05-04 14:10 | 32.67240 | -16.79409 | 1655 ft | 160 kts | 178° |
| 2026-05-04 14:10 | 32.66134 | -16.79144 | 2131 ft | 169 kts | 169° |
| 2026-05-04 14:10 | 32.64910 | -16.78899 | 2423 ft | 187 kts | 173° |
| 2026-05-04 14:11 | 32.63554 | -16.78674 | 2712 ft | 207 kts | 173° |
| 2026-05-04 14:11 | 32.60372 | -16.78165 | 3357 ft | 253 kts | 173° |
| 2026-05-04 14:11 | 32.58619 | -16.77727 | 3987 ft | 262 kts | 156° |
| 2026-05-04 14:12 | 32.57252 | -16.76343 | 4734 ft | 269 kts | 122° |
| 2026-05-04 14:12 | 32.56754 | -16.74212 | 5494 ft | 275 kts | 88° |
| 2026-05-04 14:12 | 32.58315 | -16.70042 | 6086 ft | 281 kts | 58° |
| 2026-05-04 14:13 | 32.59382 | -16.68096 | 6128 ft | 282 kts | 57° |
| 2026-05-04 14:13 | 32.60466 | -16.66116 | 6608 ft | 292 kts | 57° |
| 2026-05-04 14:13 | 32.61571 | -16.64086 | 7408 ft | 291 kts | 57° |
| 2026-05-04 14:13 | 32.62602 | -16.62015 | 8228 ft | 293 kts | 63° |
| 2026-05-04 14:14 | 32.63424 | -16.59797 | 8982 ft | 296 kts | 68° |
| 2026-05-04 14:14 | 32.64628 | -16.55944 | 10158 ft | 303 kts | 65° |
| 2026-05-04 14:14 | 32.66139 | -16.53115 | 10790 ft | 318 kts | 45° |
| 2026-05-04 14:15 | 32.69513 | -16.49184 | 11157 ft | 360 kts | 42° |
| 2026-05-04 14:15 | 32.72598 | -16.45731 | 12078 ft | 371 kts | 41° |
| 2026-05-04 14:16 | 32.76387 | -16.41458 | 13408 ft | 380 kts | 42° |
| 2026-05-04 14:16 | 32.78305 | -16.39277 | 14005 ft | 384 kts | 42° |
| 2026-05-04 14:17 | 32.82193 | -16.34826 | 15144 ft | 391 kts | 42° |
| 2026-05-04 14:17 | 32.84158 | -16.32569 | 15698 ft | 395 kts | 42° |
| 2026-05-04 14:17 | 32.88142 | -16.28003 | 16863 ft | 401 kts | 42° |
| 2026-05-04 14:18 | 32.90156 | -16.25694 | 17437 ft | 403 kts | 42° |
| 2026-05-04 14:18 | 32.94193 | -16.21053 | 18498 ft | 410 kts | 42° |
| 2026-05-04 14:19 | 32.98330 | -16.16295 | 19404 ft | 417 kts | 42° |
| 2026-05-04 14:19 | 33.00425 | -16.13884 | 19853 ft | 421 kts | 42° |
| 2026-05-04 14:19 | 33.02541 | -16.11448 | 20302 ft | 424 kts | 42° |
| 2026-05-04 14:19 | 33.04671 | -16.08992 | 20752 ft | 428 kts | 42° |
| 2026-05-04 14:20 | 33.06819 | -16.06513 | 21182 ft | 432 kts | 42° |
| 2026-05-04 14:20 | 33.08986 | -16.04011 | 21601 ft | 435 kts | 42° |
| 2026-05-04 14:20 | 33.11168 | -16.01490 | 22011 ft | 439 kts | 42° |
| 2026-05-04 14:21 | 33.15587 | -15.96382 | 22816 ft | 445 kts | 42° |
| 2026-05-04 14:21 | 33.17789 | -15.93836 | 23200 ft | 449 kts | 42° |
| 2026-05-04 14:21 | 33.20041 | -15.91233 | 23612 ft | 452 kts | 42° |
| 2026-05-04 14:21 | 33.22307 | -15.88607 | 23940 ft | 455 kts | 42° |
| 2026-05-04 14:22 | 33.24581 | -15.85967 | 24257 ft | 457 kts | 42° |
| 2026-05-04 14:22 | 33.26868 | -15.83309 | 24577 ft | 460 kts | 42° |
| 2026-05-04 14:22 | 33.29165 | -15.80637 | 24887 ft | 462 kts | 42° |
| 2026-05-04 14:22 | 33.31470 | -15.77954 | 25203 ft | 464 kts | 42° |
| 2026-05-04 14:23 | 33.36107 | -15.72548 | 25810 ft | 468 kts | 42° |
| 2026-05-04 14:23 | 33.38413 | -15.69863 | 26101 ft | 470 kts | 42° |
| 2026-05-04 14:23 | 33.40713 | -15.67082 | 26384 ft | 473 kts | 47° |
| 2026-05-04 14:24 | 33.42708 | -15.63939 | 26689 ft | 477 kts | 56° |
| 2026-05-04 14:24 | 33.44370 | -15.60491 | 26965 ft | 480 kts | 60° |
| 2026-05-04 14:24 | 33.45998 | -15.56995 | 27241 ft | 481 kts | 59° |
| 2026-05-04 14:24 | 33.47639 | -15.53488 | 27506 ft | 483 kts | 59° |
| 2026-05-04 14:25 | 33.49287 | -15.49973 | 27787 ft | 485 kts | 59° |
| 2026-05-04 14:25 | 33.52572 | -15.42961 | 28350 ft | 487 kts | 59° |
| 2026-05-04 14:25 | 33.54234 | -15.39414 | 28600 ft | 489 kts | 59° |
| 2026-05-04 14:26 | 33.55898 | -15.35858 | 28843 ft | 490 kts | 59° |
| 2026-05-04 14:26 | 33.57713 | -15.32413 | 29114 ft | 488 kts | 49° |
| 2026-05-04 14:26 | 33.60072 | -15.29511 | 29336 ft | 486 kts | 39° |
| 2026-05-04 14:26 | 33.62593 | -15.26787 | 29547 ft | 488 kts | 39° |
| 2026-05-04 14:27 | 33.65128 | -15.24075 | 29748 ft | 489 kts | 39° |
| 2026-05-04 14:27 | 33.67676 | -15.21363 | 29994 ft | 489 kts | 39° |
| 2026-05-04 14:27 | 33.70219 | -15.18654 | 30274 ft | 489 kts | 39° |
| 2026-05-04 14:27 | 33.72761 | -15.15939 | 30511 ft | 488 kts | 39° |
| 2026-05-04 14:28 | 33.75258 | -15.13262 | 30750 ft | 488 kts | 39° |
| 2026-05-04 14:28 | 33.77788 | -15.10542 | 30982 ft | 488 kts | 39° |
| 2026-05-04 14:28 | 33.80315 | -15.07819 | 31244 ft | 488 kts | 38° |
| 2026-05-04 14:28 | 33.82841 | -15.05091 | 31404 ft | 490 kts | 38° |
| 2026-05-04 14:29 | 33.87919 | -14.99609 | 31811 ft | 491 kts | 39° |
| 2026-05-04 14:29 | 33.92997 | -14.94125 | 32283 ft | 490 kts | 39° |
| 2026-05-04 14:30 | 33.95533 | -14.91383 | 32517 ft | 490 kts | 38° |
| 2026-05-04 14:30 | 33.98036 | -14.88675 | 32743 ft | 490 kts | 38° |
| 2026-05-04 14:30 | 34.03100 | -14.83187 | 33197 ft | 490 kts | 38° |
| 2026-05-04 14:31 | 34.05635 | -14.80439 | 33430 ft | 489 kts | 38° |
| 2026-05-04 14:31 | 34.10694 | -14.74953 | 33904 ft | 489 kts | 38° |
| 2026-05-04 14:32 | 34.15758 | -14.69443 | 34281 ft | 490 kts | 38° |
| 2026-05-04 14:32 | 34.18294 | -14.66689 | 34468 ft | 490 kts | 38° |
| 2026-05-04 14:32 | 34.20833 | -14.63932 | 34654 ft | 491 kts | 38° |
| 2026-05-04 14:32 | 34.23330 | -14.61208 | 34832 ft | 491 kts | 38° |
| 2026-05-04 14:33 | 34.25862 | -14.58438 | 35012 ft | 491 kts | 39° |
| 2026-05-04 14:33 | 34.28392 | -14.55669 | 35188 ft | 491 kts | 38° |
| 2026-05-04 14:33 | 34.30923 | -14.52896 | 35357 ft | 491 kts | 38° |
| 2026-05-04 14:33 | 34.33456 | -14.50121 | 35515 ft | 491 kts | 38° |
| 2026-05-04 14:34 | 34.35987 | -14.47348 | 35665 ft | 491 kts | 38° |
| 2026-05-04 14:34 | 34.38522 | -14.44570 | 35828 ft | 492 kts | 39° |
| 2026-05-04 14:34 | 34.41056 | -14.41791 | 35975 ft | 492 kts | 38° |
| 2026-05-04 14:34 | 34.43588 | -14.39009 | 36123 ft | 492 kts | 38° |
| 2026-05-04 14:35 | 34.46125 | -14.36222 | 36171 ft | 493 kts | 38° |
| 2026-05-04 14:35 | 34.51163 | -14.30682 | 36166 ft | 493 kts | 38° |
| 2026-05-04 14:36 | 34.56237 | -14.25090 | 36167 ft | 493 kts | 38° |
| 2026-05-04 14:36 | 34.61303 | -14.19481 | 36166 ft | 493 kts | 38° |
| 2026-05-04 14:37 | 34.66361 | -14.13868 | 36165 ft | 493 kts | 38° |
| 2026-05-04 14:37 | 34.71427 | -14.08263 | 36171 ft | 493 kts | 38° |
| 2026-05-04 14:38 | 34.76458 | -14.02680 | 36179 ft | 493 kts | 38° |
| 2026-05-04 14:38 | 34.81519 | -13.97046 | 36181 ft | 493 kts | 38° |
| 2026-05-04 14:39 | 34.86579 | -13.91404 | 36181 ft | 493 kts | 38° |
| 2026-05-04 14:39 | 34.91640 | -13.85762 | 36178 ft | 493 kts | 38° |
| 2026-05-04 14:40 | 34.99224 | -13.77287 | 36199 ft | 493 kts | 38° |
| 2026-05-04 14:40 | 35.04231 | -13.71668 | 36193 ft | 492 kts | 38° |
| 2026-05-04 14:41 | 35.09272 | -13.66010 | 36185 ft | 492 kts | 38° |
| 2026-05-04 14:42 | 35.19334 | -13.54671 | 36179 ft | 492 kts | 38° |
| 2026-05-04 14:42 | 35.24324 | -13.49040 | 36186 ft | 491 kts | 38° |
| 2026-05-04 14:43 | 35.29348 | -13.43366 | 36172 ft | 492 kts | 38° |
| 2026-05-04 14:43 | 35.34370 | -13.37685 | 36167 ft | 491 kts | 38° |
| 2026-05-04 14:44 | 35.39388 | -13.31993 | 36161 ft | 491 kts | 38° |
| 2026-05-04 14:44 | 35.44363 | -13.26327 | 36159 ft | 491 kts | 38° |
| 2026-05-04 14:45 | 35.49368 | -13.20615 | 36158 ft | 491 kts | 38° |
| 2026-05-04 14:45 | 35.54378 | -13.14899 | 36175 ft | 492 kts | 38° |
| 2026-05-04 14:46 | 35.59385 | -13.09180 | 36180 ft | 492 kts | 37° |
| 2026-05-04 14:46 | 35.64391 | -13.03446 | 36167 ft | 492 kts | 38° |
| 2026-05-04 14:47 | 35.69392 | -12.97704 | 36163 ft | 492 kts | 37° |
| 2026-05-04 14:47 | 35.74362 | -12.91992 | 36165 ft | 492 kts | 38° |
| 2026-05-04 14:48 | 35.79365 | -12.86232 | 36170 ft | 492 kts | 38° |
| 2026-05-04 14:48 | 35.84367 | -12.80465 | 36187 ft | 493 kts | 38° |
| 2026-05-04 14:49 | 35.89367 | -12.74686 | 36181 ft | 492 kts | 37° |
| 2026-05-04 14:49 | 35.94360 | -12.68898 | 36170 ft | 492 kts | 37° |
| 2026-05-04 14:50 | 35.99317 | -12.63147 | 36165 ft | 492 kts | 37° |
| 2026-05-04 14:50 | 36.03978 | -12.56905 | 36161 ft | 501 kts | 52° |
| 2026-05-04 14:51 | 36.07049 | -12.49124 | 36155 ft | 509 kts | 71° |
| 2026-05-04 14:51 | 36.08860 | -12.40651 | 36158 ft | 510 kts | 73° |
| 2026-05-04 14:52 | 36.10649 | -12.32212 | 36145 ft | 511 kts | 73° |
| 2026-05-04 14:52 | 36.12458 | -12.23708 | 36169 ft | 511 kts | 73° |
| 2026-05-04 14:53 | 36.14245 | -12.15199 | 36162 ft | 511 kts | 73° |
| 2026-05-04 14:53 | 36.16019 | -12.06684 | 36159 ft | 511 kts | 73° |
| 2026-05-04 14:54 | 36.17792 | -11.98172 | 36175 ft | 510 kts | 74° |
| 2026-05-04 14:54 | 36.19555 | -11.89732 | 36169 ft | 510 kts | 74° |
| 2026-05-04 14:55 | 36.21313 | -11.81230 | 36163 ft | 509 kts | 74° |
| 2026-05-04 14:55 | 36.23055 | -11.72733 | 36156 ft | 509 kts | 74° |
| 2026-05-04 14:56 | 36.24803 | -11.64236 | 36161 ft | 509 kts | 74° |
| 2026-05-04 14:56 | 36.26550 | -11.55736 | 36154 ft | 509 kts | 74° |
| 2026-05-04 14:57 | 36.28284 | -11.47231 | 36152 ft | 509 kts | 74° |
| 2026-05-04 14:57 | 36.30013 | -11.38724 | 36151 ft | 509 kts | 74° |
| 2026-05-04 14:58 | 36.31719 | -11.30267 | 36161 ft | 509 kts | 74° |
| 2026-05-04 14:58 | 36.33427 | -11.21746 | 36161 ft | 509 kts | 75° |
| 2026-05-04 14:59 | 36.35136 | -11.13232 | 36154 ft | 508 kts | 74° |
| 2026-05-04 15:00 | 36.37690 | -11.00471 | 36149 ft | 508 kts | 75° |
| 2026-05-04 15:00 | 36.39365 | -10.92011 | 36155 ft | 508 kts | 75° |
| 2026-05-04 15:01 | 36.41890 | -10.79237 | 36143 ft | 508 kts | 75° |
| 2026-05-04 15:01 | 36.43569 | -10.70710 | 36138 ft | 508 kts | 75° |
| 2026-05-04 15:02 | 36.45237 | -10.62177 | 36138 ft | 509 kts | 75° |
| 2026-05-04 15:02 | 36.46902 | -10.53643 | 36140 ft | 509 kts | 75° |
| 2026-05-04 15:03 | 36.48569 | -10.45092 | 36136 ft | 509 kts | 75° |
| 2026-05-04 15:03 | 36.50215 | -10.36591 | 36137 ft | 509 kts | 75° |
| 2026-05-04 15:04 | 36.51868 | -10.28028 | 36137 ft | 510 kts | 75° |
| 2026-05-04 15:04 | 36.53504 | -10.19456 | 36147 ft | 510 kts | 75° |
| 2026-05-04 15:05 | 36.55140 | -10.10873 | 36134 ft | 510 kts | 75° |
| 2026-05-04 15:05 | 36.56770 | -10.02347 | 36131 ft | 510 kts | 75° |
| 2026-05-04 15:06 | 36.58401 | -9.93752 | 36152 ft | 510 kts | 75° |
| 2026-05-04 15:07 | 36.60823 | -9.80862 | 36146 ft | 510 kts | 75° |
| 2026-05-04 15:07 | 36.62438 | -9.72259 | 36134 ft | 510 kts | 75° |
| 2026-05-04 15:08 | 36.64035 | -9.63713 | 36130 ft | 511 kts | 75° |
| 2026-05-04 15:08 | 36.65631 | -9.55086 | 36128 ft | 511 kts | 75° |
| 2026-05-04 15:09 | 36.67229 | -9.46460 | 36126 ft | 511 kts | 75° |
| 2026-05-04 15:09 | 36.68829 | -9.37825 | 36124 ft | 512 kts | 75° |
| 2026-05-04 15:10 | 36.71203 | -9.24852 | 36121 ft | 512 kts | 76° |
| 2026-05-04 15:11 | 36.73554 | -9.11909 | 36122 ft | 513 kts | 76° |
| 2026-05-04 15:11 | 36.75126 | -9.03239 | 36121 ft | 513 kts | 76° |
| 2026-05-04 15:12 | 36.76695 | -8.94560 | 36121 ft | 513 kts | 76° |
| 2026-05-04 15:12 | 36.78240 | -8.85929 | 36115 ft | 513 kts | 76° |
| 2026-05-04 15:13 | 36.79790 | -8.77240 | 36106 ft | 513 kts | 76° |
| 2026-05-04 15:13 | 36.81341 | -8.68542 | 36103 ft | 514 kts | 76° |
| 2026-05-04 15:14 | 36.82889 | -8.59834 | 36091 ft | 514 kts | 76° |
| 2026-05-04 15:14 | 36.84425 | -8.51106 | 36091 ft | 515 kts | 76° |
| 2026-05-04 15:15 | 36.85955 | -8.42371 | 36088 ft | 515 kts | 76° |
| 2026-05-04 15:15 | 36.87473 | -8.33691 | 36090 ft | 515 kts | 77° |
| 2026-05-04 15:16 | 36.89747 | -8.20563 | 36077 ft | 516 kts | 77° |
| 2026-05-04 15:17 | 36.92015 | -8.07411 | 36069 ft | 516 kts | 77° |
| 2026-05-04 15:17 | 36.94265 | -7.94313 | 36069 ft | 516 kts | 77° |
| 2026-05-04 15:18 | 36.95760 | -7.85537 | 36068 ft | 516 kts | 77° |
| 2026-05-04 15:19 | 36.97990 | -7.72365 | 36066 ft | 516 kts | 77° |
| 2026-05-04 15:19 | 37.00198 | -7.59206 | 36054 ft | 514 kts | 77° |
| 2026-05-04 15:20 | 37.01654 | -7.50447 | 36043 ft | 514 kts | 77° |
| 2026-05-04 15:20 | 37.03360 | -7.41827 | 36037 ft | 512 kts | 67° |
| 2026-05-04 15:21 | 37.06669 | -7.34032 | 36035 ft | 504 kts | 49° |
| 2026-05-04 15:22 | 37.13362 | -7.23961 | 36026 ft | 502 kts | 45° |
| 2026-05-04 15:22 | 37.20062 | -7.13928 | 36025 ft | 503 kts | 45° |
| 2026-05-04 15:23 | 37.24566 | -7.07201 | 36012 ft | 504 kts | 45° |
| 2026-05-04 15:23 | 37.29075 | -7.00457 | 36051 ft | 504 kts | 45° |
| 2026-05-04 15:24 | 37.38025 | -6.86986 | 36046 ft | 504 kts | 45° |
| 2026-05-04 15:25 | 37.42512 | -6.80223 | 36031 ft | 504 kts | 46° |
| 2026-05-04 15:26 | 37.49236 | -6.70052 | 36018 ft | 504 kts | 46° |
| 2026-05-04 15:26 | 37.55927 | -6.59906 | 36045 ft | 504 kts | 46° |
| 2026-05-04 15:27 | 37.62638 | -6.49708 | 36036 ft | 503 kts | 46° |
| 2026-05-04 15:28 | 37.69332 | -6.39496 | 36020 ft | 504 kts | 46° |
| 2026-05-04 15:29 | 37.75991 | -6.29288 | 36013 ft | 505 kts | 46° |
| 2026-05-04 15:30 | 37.91558 | -6.05333 | 36018 ft | 505 kts | 47° |
| 2026-05-04 15:31 | 37.96430 | -5.99040 | 36016 ft | 496 kts | 32° |
| 2026-05-04 15:31 | 37.99255 | -5.96593 | 36012 ft | 490 kts | 26° |
| 2026-05-04 15:32 | 38.13685 | -5.85009 | 36030 ft | 491 kts | 26° |
| 2026-05-04 15:34 | 38.28059 | -5.73424 | 36020 ft | 490 kts | 26° |
| 2026-05-04 15:34 | 38.36705 | -5.66442 | 36002 ft | 491 kts | 27° |
| 2026-05-04 15:35 | 38.45320 | -5.59441 | 35998 ft | 492 kts | 27° |
| 2026-05-04 15:36 | 38.53981 | -5.52393 | 36030 ft | 492 kts | 27° |
| 2026-05-04 15:36 | 38.59752 | -5.47677 | 36017 ft | 492 kts | 27° |
| 2026-05-04 15:37 | 38.65490 | -5.43011 | 36007 ft | 492 kts | 26° |
| 2026-05-04 15:37 | 38.71276 | -5.38349 | 36005 ft | 492 kts | 26° |
| 2026-05-04 15:38 | 38.77060 | -5.33675 | 36036 ft | 491 kts | 26° |
| 2026-05-04 15:38 | 38.82839 | -5.28986 | 36017 ft | 492 kts | 27° |
| 2026-05-04 15:39 | 38.88614 | -5.24283 | 36004 ft | 492 kts | 27° |
| 2026-05-04 15:40 | 38.97235 | -5.17242 | 35991 ft | 492 kts | 27° |
| 2026-05-04 15:40 | 39.03006 | -5.12527 | 36013 ft | 491 kts | 27° |
| 2026-05-04 15:41 | 39.08760 | -5.07778 | 36004 ft | 491 kts | 27° |
| 2026-05-04 15:41 | 39.14500 | -5.03015 | 35993 ft | 491 kts | 27° |
| 2026-05-04 15:42 | 39.20193 | -4.98266 | 35978 ft | 491 kts | 27° |
| 2026-05-04 15:42 | 39.25916 | -4.93469 | 35987 ft | 491 kts | 27° |
| 2026-05-04 15:43 | 39.31677 | -4.88732 | 35970 ft | 491 kts | 27° |
| 2026-05-04 15:43 | 39.37440 | -4.83960 | 35971 ft | 492 kts | 27° |
| 2026-05-04 15:44 | 39.43190 | -4.79152 | 35969 ft | 493 kts | 27° |
| 2026-05-04 15:44 | 39.48908 | -4.74353 | 36009 ft | 493 kts | 28° |
| 2026-05-04 15:45 | 39.54671 | -4.69510 | 35993 ft | 493 kts | 27° |
| 2026-05-04 15:45 | 39.60398 | -4.64697 | 35983 ft | 493 kts | 28° |
| 2026-05-04 15:46 | 39.66165 | -4.59843 | 35975 ft | 493 kts | 27° |
| 2026-05-04 15:46 | 39.71912 | -4.54976 | 35979 ft | 493 kts | 28° |
| 2026-05-04 15:47 | 39.77642 | -4.50170 | 35973 ft | 493 kts | 27° |
| 2026-05-04 15:47 | 39.83526 | -4.45608 | 35971 ft | 492 kts | 25° |
| 2026-05-04 15:48 | 39.89082 | -4.40347 | 35920 ft | 503 kts | 45° |
| 2026-05-04 15:48 | 39.91101 | -4.36620 | 35907 ft | 507 kts | 63° |
| 2026-05-04 15:48 | 39.93272 | -4.27957 | 35919 ft | 507 kts | 64° |
| 2026-05-04 15:49 | 39.95128 | -4.24106 | 35924 ft | 499 kts | 43° |
| 2026-05-04 15:49 | 39.97778 | -4.21306 | 35949 ft | 486 kts | 22° |
| 2026-05-04 15:49 | 40.00887 | -4.19843 | 35945 ft | 468 kts | 1° |
| 2026-05-04 15:49 | 40.04076 | -4.19691 | 35935 ft | 456 kts | 352° |
| 2026-05-04 15:50 | 40.07274 | -4.19388 | 35913 ft | 469 kts | 7° |
| 2026-05-04 15:50 | 40.10411 | -4.18072 | 35918 ft | 478 kts | 18° |
| 2026-05-04 15:50 | 40.16396 | -4.14111 | 35920 ft | 485 kts | 24° |
| 2026-05-04 15:51 | 40.22363 | -4.10119 | 35934 ft | 484 kts | 19° |
| 2026-05-04 15:51 | 40.28569 | -4.06752 | 35936 ft | 482 kts | 15° |
| 2026-05-04 15:52 | 40.34837 | -4.03653 | 35939 ft | 482 kts | 15° |
| 2026-05-04 15:52 | 40.41096 | -4.00461 | 35984 ft | 482 kts | 16° |
| 2026-05-04 15:53 | 40.47253 | -3.97068 | 35986 ft | 486 kts | 22° |
| 2026-05-04 15:53 | 40.53146 | -3.92625 | 35988 ft | 486 kts | 21° |
| 2026-05-04 15:54 | 40.59426 | -3.89642 | 35987 ft | 477 kts | 10° |
| 2026-05-04 15:54 | 40.65809 | -3.87175 | 35984 ft | 479 kts | 13° |
| 2026-05-04 15:55 | 40.72081 | -3.84099 | 35985 ft | 483 kts | 17° |
| 2026-05-04 15:55 | 40.78224 | -3.80625 | 35961 ft | 484 kts | 18° |
| 2026-05-04 15:56 | 40.84419 | -3.77122 | 35958 ft | 484 kts | 18° |
| 2026-05-04 15:56 | 40.90611 | -3.73755 | 35978 ft | 484 kts | 17° |
| 2026-05-04 15:57 | 40.96859 | -3.70411 | 35986 ft | 484 kts | 17° |
| 2026-05-04 15:57 | 41.03061 | -3.67069 | 35990 ft | 485 kts | 17° |
| 2026-05-04 15:58 | 41.09300 | -3.63678 | 36013 ft | 484 kts | 17° |
| 2026-05-04 15:58 | 41.15458 | -3.60020 | 36000 ft | 489 kts | 26° |
| 2026-05-04 15:59 | 41.21065 | -3.54840 | 35994 ft | 492 kts | 32° |
| 2026-05-04 15:59 | 41.26620 | -3.49525 | 35981 ft | 492 kts | 32° |
| 2026-05-04 16:00 | 41.32138 | -3.44262 | 35994 ft | 491 kts | 32° |
| 2026-05-04 16:00 | 41.37693 | -3.38953 | 35977 ft | 491 kts | 32° |
| 2026-05-04 16:01 | 41.43241 | -3.33626 | 35971 ft | 492 kts | 32° |
| 2026-05-04 16:01 | 41.48779 | -3.28279 | 35974 ft | 492 kts | 32° |
| 2026-05-04 16:02 | 41.54282 | -3.22958 | 35999 ft | 491 kts | 33° |
| 2026-05-04 16:03 | 41.62593 | -3.14946 | 35991 ft | 491 kts | 33° |
| 2026-05-04 16:03 | 41.68120 | -3.09585 | 35988 ft | 491 kts | 33° |
| 2026-05-04 16:04 | 41.73642 | -3.04216 | 35977 ft | 491 kts | 33° |
| 2026-05-04 16:04 | 41.81894 | -2.96178 | 35975 ft | 491 kts | 33° |
| 2026-05-04 16:05 | 41.87417 | -2.90774 | 35979 ft | 491 kts | 33° |
| 2026-05-04 16:06 | 41.95696 | -2.82650 | 35998 ft | 492 kts | 34° |
| 2026-05-04 16:07 | 42.06693 | -2.71827 | 35986 ft | 491 kts | 34° |
| 2026-05-04 16:08 | 42.17717 | -2.60935 | 36005 ft | 491 kts | 34° |
| 2026-05-04 16:09 | 42.31428 | -2.47313 | 36003 ft | 490 kts | 34° |
| 2026-05-04 16:10 | 42.42402 | -2.36357 | 36005 ft | 490 kts | 36° |
| 2026-05-04 16:11 | 42.49017 | -2.26008 | 35980 ft | 490 kts | 60° |
| 2026-05-04 16:11 | 42.50754 | -2.22027 | 35981 ft | 491 kts | 60° |
| 2026-05-04 16:12 | 42.59918 | -1.97400 | 36010 ft | 486 kts | 82° |
| 2026-05-04 16:13 | 42.62038 | -1.79360 | 36005 ft | 485 kts | 83° |
| 2026-05-04 16:14 | 42.64157 | -1.61274 | 36012 ft | 485 kts | 84° |
| 2026-05-04 16:16 | 42.66735 | -1.38702 | 35988 ft | 485 kts | 84° |
| 2026-05-04 16:17 | 42.69299 | -1.16015 | 35987 ft | 486 kts | 84° |
| 2026-05-04 16:18 | 42.71317 | -0.97873 | 35963 ft | 488 kts | 85° |
| 2026-05-04 16:19 | 42.73803 | -0.75007 | 35937 ft | 489 kts | 86° |